createdAt,value
2023-02-06T00:01:31.383Z,44.75
2023-02-06T00:03:59.455Z,48.13
2023-02-06T00:06:26.787Z,55.03
2023-02-06T00:08:57.899Z,46.30
2023-02-06T00:11:26.133Z,47.47
2023-02-06T00:13:53.881Z,58.65
2023-02-06T00:16:22.350Z,46.92
2023-02-06T00:18:50.102Z,49.67
2023-02-06T00:21:20.381Z,58.60
2023-02-06T00:23:47.728Z,59.67
2023-02-06T00:26:16.407Z,55.75
2023-02-06T00:28:44.571Z,66.55
2023-02-06T00:31:11.965Z,52.00
2023-02-06T00:33:40.119Z,41.92
2023-02-06T00:36:08.144Z,54.50
2023-02-06T00:38:37.094Z,44.50
2023-02-06T00:41:04.403Z,49.03
2023-02-06T00:43:35.630Z,50.67
2023-02-06T00:46:03.241Z,47.38
2023-02-06T00:48:30.570Z,47.03
2023-02-06T00:50:58.071Z,56.03
2023-02-06T00:53:25.371Z,51.92
2023-02-06T00:55:52.742Z,45.97
2023-02-06T00:58:20.164Z,51.20
2023-02-06T01:00:49.085Z,47.00
2023-02-06T01:03:16.427Z,59.72
2023-02-06T01:05:43.732Z,42.65
2023-02-06T01:08:11.141Z,51.25
2023-02-06T01:10:41.047Z,49.45
2023-02-06T01:13:11.591Z,55.65
2023-02-06T01:15:38.923Z,57.78
2023-02-06T01:18:09.506Z,63.92
2023-02-06T01:20:37.444Z,46.45
2023-02-06T01:23:04.759Z,51.15
2023-02-06T01:25:32.203Z,60.05
2023-02-06T01:28:00.200Z,43.78
2023-02-06T01:30:27.680Z,49.00
2023-02-06T01:32:55.072Z,53.25
2023-02-06T01:35:24.176Z,59.03
2023-02-06T01:37:52.201Z,49.83
2023-02-06T01:40:19.646Z,41.60
2023-02-06T01:42:46.941Z,40.80
2023-02-06T01:45:41.865Z,52.63
2023-02-06T01:48:10.961Z,43.15
2023-02-06T01:50:40.680Z,57.45
2023-02-06T01:53:08.502Z,49.13
2023-02-06T01:55:36.917Z,48.97
2023-02-06T01:58:05.378Z,44.03
2023-02-06T02:00:33.049Z,37.65
2023-02-06T02:03:00.495Z,45.28
2023-02-06T02:05:27.778Z,52.10
2023-02-06T02:08:01.084Z,35.53
2023-02-06T02:10:29.578Z,50.95
2023-02-06T02:12:56.937Z,33.58
2023-02-06T02:15:25.782Z,36.08
2023-02-06T02:17:57.496Z,48.47
2023-02-06T02:20:33.988Z,42.03
2023-02-06T02:23:16.153Z,56.05
2023-02-06T02:26:02.293Z,50.40
2023-02-06T02:28:47.532Z,56.70
2023-02-06T02:31:23.078Z,45.47
2023-02-06T02:33:58.967Z,55.30
2023-02-06T02:36:31.308Z,52.92
2023-02-06T02:39:04.244Z,50.67
2023-02-06T02:41:38.119Z,56.00
2023-02-06T02:44:08.578Z,44.85
2023-02-06T02:46:36.649Z,42.47
2023-02-06T02:49:05.195Z,50.25
2023-02-06T02:51:34.040Z,65.03
2023-02-06T02:54:02.990Z,42.60
2023-02-06T02:56:33.322Z,42.03
2023-02-06T02:59:04.047Z,53.50
2023-02-06T03:01:33.981Z,57.70
2023-02-06T03:04:04.150Z,56.00
2023-02-06T03:06:51.761Z,53.85
2023-02-06T03:09:24.575Z,54.85
2023-02-06T03:11:56.131Z,49.63
2023-02-06T03:14:30.054Z,54.75
2023-02-06T03:16:59.256Z,52.50
2023-02-06T03:19:30.231Z,60.08
2023-02-06T03:21:58.960Z,58.78
2023-02-06T03:24:27.304Z,59.95
2023-02-06T03:26:57.516Z,57.38
2023-02-06T03:29:25.404Z,62.03
2023-02-06T03:31:54.730Z,55.65
2023-02-06T03:34:24.338Z,63.03
2023-02-06T03:36:53.196Z,75.10
2023-02-06T03:39:25.202Z,67.07
2023-02-06T03:41:56.747Z,58.35
2023-02-06T03:44:25.788Z,62.72
2023-02-06T03:46:53.892Z,55.30
2023-02-06T03:49:23.250Z,61.40
2023-02-06T03:51:52.420Z,69.90
2023-02-06T03:54:21.051Z,60.05
2023-02-06T03:56:53.656Z,49.30
2023-02-06T03:59:21.345Z,62.65
2023-02-06T04:01:50.612Z,57.72
2023-02-06T04:04:18.156Z,59.65
2023-02-06T04:06:45.824Z,62.35
2023-02-06T04:09:13.150Z,66.88
2023-02-06T04:11:42.615Z,50.15
2023-02-06T04:14:11.287Z,64.78
2023-02-06T04:16:39.394Z,55.20
2023-02-06T04:19:10.193Z,55.63
2023-02-06T04:21:37.468Z,62.03
2023-02-06T04:24:04.985Z,75.95
2023-02-06T04:26:32.280Z,55.95
2023-02-06T04:28:59.545Z,56.47
2023-02-06T04:31:28.717Z,59.95
2023-02-06T04:33:56.169Z,55.22
2023-02-06T04:36:23.805Z,61.75
2023-02-06T04:38:51.986Z,65.63
2023-02-06T04:41:19.730Z,57.50
2023-02-06T04:43:47.341Z,54.47
2023-02-06T04:46:14.916Z,56.75
2023-02-06T04:48:43.702Z,55.55
2023-02-06T04:51:11.119Z,60.20
2023-02-06T04:53:38.471Z,55.50
2023-02-06T04:56:06.562Z,55.85
2023-02-06T04:58:34.189Z,62.85
2023-02-06T05:01:01.927Z,55.28
2023-02-06T05:03:29.573Z,50.97
2023-02-06T05:05:59.683Z,63.75
2023-02-06T05:08:27.111Z,57.05
2023-02-06T05:10:55.443Z,65.03
2023-02-06T05:13:23.535Z,59.20
2023-02-06T05:15:51.110Z,77.07
2023-02-06T05:18:18.489Z,61.88
2023-02-06T05:20:46.004Z,53.65
2023-02-06T05:23:14.783Z,47.88
2023-02-06T05:25:42.410Z,75.30
2023-02-06T05:28:09.976Z,63.70
2023-02-06T05:30:37.804Z,57.40
2023-02-06T05:33:05.217Z,65.68
2023-02-06T05:35:35.109Z,64.70
2023-02-06T05:38:02.620Z,56.33
2023-02-06T05:40:31.611Z,54.38
2023-02-06T05:42:58.978Z,64.30
2023-02-06T05:45:26.575Z,63.78
2023-02-06T05:47:55.243Z,61.33
2023-02-06T05:50:22.807Z,53.83
2023-02-06T05:52:50.389Z,67.18
2023-02-06T05:55:18.237Z,56.65
2023-02-06T05:57:46.973Z,70.35
2023-02-06T06:00:15.375Z,66.35
2023-02-06T06:02:42.850Z,64.85
2023-02-06T06:05:10.182Z,64.57
2023-02-06T06:07:37.781Z,66.18
2023-02-06T06:10:06.813Z,74.38
2023-02-06T06:12:34.543Z,77.63
2023-02-06T06:15:05.786Z,70.10
2023-02-06T06:17:36.708Z,78.28
2023-02-06T06:20:04.442Z,78.97
2023-02-06T06:22:32.083Z,91.95
2023-02-06T06:24:59.417Z,80.25
2023-02-06T06:27:26.826Z,83.55
2023-02-06T06:29:54.249Z,85.75
2023-02-06T06:32:23.245Z,104.18
2023-02-06T06:34:50.587Z,94.38
2023-02-06T06:37:18.137Z,89.30
2023-02-06T06:39:45.455Z,82.32
2023-02-06T06:42:12.786Z,86.13
2023-02-06T06:44:40.341Z,94.30
2023-02-06T06:47:07.890Z,93.82
2023-02-06T06:49:36.566Z,99.22
2023-02-06T06:52:07.004Z,80.13
2023-02-06T06:54:36.305Z,94.35
2023-02-06T06:57:04.322Z,89.55
2023-02-06T06:59:31.598Z,94.53
2023-02-06T07:01:58.960Z,85.07
2023-02-06T07:04:29.476Z,87.25
2023-02-06T07:06:58.340Z,83.70
2023-02-06T07:09:28.122Z,88.03
2023-02-06T07:11:55.453Z,91.28
2023-02-06T07:14:22.777Z,96.05
2023-02-06T07:16:50.243Z,104.05
2023-02-06T07:19:17.859Z,85.95
2023-02-06T07:21:45.215Z,90.15
2023-02-06T07:24:15.974Z,102.45
2023-02-06T07:26:43.294Z,98.50
2023-02-06T07:29:13.050Z,94.18
2023-02-06T07:31:40.735Z,84.60
2023-02-06T07:34:08.123Z,94.82
2023-02-06T07:36:35.453Z,85.30
2023-02-06T07:39:03.093Z,84.32
2023-02-06T07:41:31.882Z,115.55
2023-02-06T07:43:59.443Z,81.97
2023-02-06T07:46:26.743Z,75.28
2023-02-06T07:48:54.084Z,86.53
2023-02-06T07:51:21.809Z,87.38
2023-02-06T07:53:49.233Z,90.95
2023-02-06T07:56:17.654Z,88.18
2023-02-06T07:58:47.168Z,86.45
2023-02-06T08:01:14.591Z,82.03
2023-02-06T08:03:42.046Z,106.10
2023-02-06T08:06:10.086Z,93.68
2023-02-06T08:08:37.519Z,86.63
2023-02-06T08:11:05.618Z,83.65
2023-02-06T08:13:33.691Z,86.90
2023-02-06T08:16:05.590Z,82.70
2023-02-06T08:18:33.131Z,79.43
2023-02-06T08:21:04.306Z,67.15
2023-02-06T08:23:31.946Z,88.68
2023-02-06T08:26:03.249Z,81.78
2023-02-06T08:28:30.969Z,86.63
2023-02-06T08:30:58.662Z,80.28
2023-02-06T08:33:27.422Z,80.78
2023-02-06T08:35:55.279Z,89.95
2023-02-06T08:38:24.951Z,68.35
2023-02-06T08:40:52.941Z,92.40
2023-02-06T08:43:20.341Z,75.97
2023-02-06T08:45:48.893Z,74.20
2023-02-06T08:48:16.334Z,71.10
2023-02-06T08:50:48.143Z,79.38
2023-02-06T08:53:15.507Z,61.58
2023-02-06T08:55:42.904Z,67.45
2023-02-06T08:58:10.237Z,57.30
2023-02-06T09:00:37.591Z,57.05
2023-02-06T09:03:05.526Z,52.67
2023-02-06T09:05:33.200Z,51.38
2023-02-06T09:08:01.838Z,59.75
2023-02-06T09:10:29.190Z,64.43
2023-02-06T09:12:57.506Z,68.80
2023-02-06T09:15:28.539Z,79.22
2023-02-06T09:17:55.894Z,65.43
2023-02-06T09:20:26.406Z,53.47
2023-02-06T09:22:53.711Z,54.97
2023-02-06T09:25:22.379Z,64.45
2023-02-06T09:27:49.701Z,55.00
2023-02-06T09:30:17.030Z,47.05
2023-02-06T09:32:44.496Z,49.97
2023-02-06T09:35:12.013Z,46.75
2023-02-06T09:37:39.347Z,52.47
2023-02-06T09:40:07.129Z,49.92
2023-02-06T09:42:37.201Z,49.50
2023-02-06T09:45:06.281Z,54.22
2023-02-06T09:47:35.249Z,41.58
2023-02-06T09:50:05.359Z,54.58
2023-02-06T09:52:40.338Z,38.92
2023-02-06T09:55:10.834Z,49.15
2023-02-06T09:57:42.525Z,48.13
2023-02-06T10:00:13.938Z,43.20
2023-02-06T10:03:02.007Z,37.97
2023-02-06T10:05:35.267Z,36.63
2023-02-06T10:08:11.148Z,46.75
2023-02-06T10:10:40.384Z,44.05
2023-02-06T10:13:13.318Z,37.20
2023-02-06T10:15:42.699Z,49.47
2023-02-06T10:18:12.325Z,43.60
2023-02-06T10:20:41.545Z,45.83
2023-02-06T10:23:12.855Z,41.60
2023-02-06T10:25:42.881Z,39.55
2023-02-06T10:28:20.785Z,37.67
2023-02-06T10:30:52.765Z,34.78
2023-02-06T10:33:26.057Z,35.30
2023-02-06T10:35:57.434Z,35.22
2023-02-06T10:38:40.955Z,39.65
2023-02-06T10:41:12.004Z,38.83
2023-02-06T10:43:44.586Z,33.00
2023-02-06T10:46:23.072Z,41.50
2023-02-06T10:48:55.929Z,30.98
2023-02-06T10:51:27.470Z,32.20
2023-02-06T10:53:58.232Z,36.22
2023-02-06T10:56:28.288Z,27.70
2023-02-06T10:58:57.887Z,31.40
2023-02-06T11:01:27.075Z,33.03
2023-02-06T11:03:59.104Z,42.28
2023-02-06T11:06:27.028Z,34.47
2023-02-06T11:08:54.502Z,33.28
2023-02-06T11:11:23.126Z,29.70
2023-02-06T11:13:52.392Z,32.85
2023-02-06T11:16:24.119Z,32.72
2023-02-06T11:18:52.125Z,34.90
2023-02-06T11:21:34.305Z,37.72
2023-02-06T11:24:09.072Z,26.13
2023-02-06T11:29:10.309Z,28.42
2023-02-06T11:31:40.963Z,28.67
2023-02-06T11:34:19.859Z,28.52
2023-02-06T11:36:52.448Z,30.25
2023-02-06T11:39:22.962Z,30.33
2023-02-06T11:41:56.983Z,26.05
2023-02-06T11:44:25.545Z,23.17
2023-02-06T11:46:54.335Z,25.23
2023-02-06T11:49:27.096Z,28.15
2023-02-06T11:51:55.209Z,30.80
2023-02-06T11:54:24.107Z,28.60
2023-02-06T11:57:03.151Z,26.70
2023-02-06T11:59:33.721Z,29.35
2023-02-06T12:02:05.545Z,25.30
2023-02-06T12:04:34.806Z,26.40
2023-02-06T12:07:03.594Z,27.60
2023-02-06T12:09:30.929Z,23.95
2023-02-06T12:12:01.219Z,26.05
2023-02-06T12:14:32.536Z,23.80
2023-02-06T12:17:01.260Z,23.95
2023-02-06T12:19:39.242Z,23.98
2023-02-06T12:22:11.784Z,24.33
2023-02-06T12:24:41.455Z,27.83
2023-02-06T12:27:14.357Z,26.38
2023-02-06T12:29:43.266Z,26.83
2023-02-06T12:32:14.959Z,30.52
2023-02-06T12:34:50.206Z,31.17
2023-02-06T12:37:21.409Z,28.33
2023-02-06T12:39:49.207Z,31.80
2023-02-06T12:42:34.188Z,32.95
2023-02-06T12:45:04.942Z,33.38
2023-02-06T12:47:35.718Z,31.08
2023-02-06T12:50:05.840Z,30.35
2023-02-06T12:52:36.696Z,28.95
2023-02-06T12:55:08.002Z,28.65
2023-02-06T12:57:37.045Z,32.33
2023-02-06T13:00:28.550Z,31.58
2023-02-06T13:03:05.005Z,29.02
2023-02-06T13:05:35.749Z,28.23
2023-02-06T13:08:08.690Z,28.85
2023-02-06T13:10:37.164Z,29.70
2023-02-06T13:13:09.102Z,29.35
2023-02-06T13:15:38.703Z,29.63
2023-02-06T13:18:21.370Z,21.52
2023-02-06T13:21:04.127Z,23.00
2023-02-06T13:23:38.051Z,26.77
2023-02-06T13:26:05.335Z,25.73
2023-02-06T13:29:03.125Z,22.13
2023-02-06T13:31:31.998Z,25.85
2023-02-06T13:34:01.447Z,26.42
2023-02-06T13:36:42.601Z,32.42
2023-02-06T13:39:24.975Z,34.67
2023-02-06T13:41:52.636Z,27.92
2023-02-06T13:44:22.608Z,33.80
2023-02-06T13:47:06.142Z,28.45
2023-02-06T13:49:51.979Z,29.88
2023-02-06T13:52:20.973Z,37.05
2023-02-06T13:54:59.172Z,31.85
2023-02-06T13:57:32.374Z,29.00
2023-02-06T14:00:02.049Z,34.10
2023-02-06T14:02:32.400Z,41.33
2023-02-06T14:05:00.008Z,36.47
2023-02-06T14:07:45.039Z,39.13
2023-02-06T14:10:21.134Z,34.13
2023-02-06T14:12:53.656Z,37.67
2023-02-06T14:15:28.471Z,34.47
2023-02-06T14:20:29.955Z,40.55
2023-02-06T14:23:05.692Z,45.13
2023-02-06T14:25:41.384Z,34.42
2023-02-06T14:28:12.249Z,43.08
2023-02-06T14:30:43.890Z,38.38
2023-02-06T14:33:17.872Z,36.38
2023-02-06T14:35:52.481Z,36.70
2023-02-06T14:38:37.659Z,32.50
2023-02-06T14:43:36.440Z,39.10
2023-02-06T14:46:08.070Z,42.97
2023-02-06T14:48:39.792Z,38.00
2023-02-06T14:51:07.849Z,29.65
2023-02-06T14:53:40.187Z,31.65
2023-02-06T14:56:09.112Z,28.63
2023-02-06T14:58:38.066Z,36.45
2023-02-06T15:01:19.958Z,27.98
2023-02-06T15:03:48.206Z,34.25
2023-02-06T15:06:17.468Z,30.40
2023-02-06T15:08:48.643Z,28.85
2023-02-06T15:11:19.317Z,26.90
2023-02-06T15:13:51.807Z,42.03
2023-02-06T15:16:19.390Z,31.55
2023-02-06T15:18:47.025Z,24.98
2023-02-06T15:21:15.813Z,33.35
2023-02-06T15:23:55.642Z,30.23
2023-02-06T15:26:27.489Z,31.63
2023-02-06T15:28:58.973Z,29.50
2023-02-06T15:31:26.597Z,34.45
2023-02-06T15:33:55.026Z,29.45
2023-02-06T15:36:23.896Z,34.17
2023-02-06T15:38:51.571Z,29.42
2023-02-06T15:41:19.354Z,28.55
2023-02-06T15:43:47.919Z,29.48
2023-02-06T15:46:16.743Z,36.25
2023-02-06T15:48:50.123Z,25.13
2023-02-06T15:51:22.751Z,38.88
2023-02-06T15:53:51.208Z,31.08
2023-02-06T15:56:21.546Z,40.03
2023-02-06T15:58:49.294Z,36.50
2023-02-06T16:01:19.901Z,38.78
2023-02-06T16:03:49.556Z,38.08
2023-02-06T16:06:17.689Z,41.28
2023-02-06T16:08:50.134Z,36.05
2023-02-06T16:11:31.631Z,38.03
2023-02-06T16:13:59.479Z,37.47
2023-02-06T16:16:29.029Z,39.65
2023-02-06T16:18:58.455Z,45.90
2023-02-06T16:21:28.040Z,39.42
2023-02-06T16:24:03.786Z,38.08
2023-02-06T16:26:31.706Z,46.75
2023-02-06T16:29:15.116Z,41.95
2023-02-06T16:31:45.134Z,44.60
2023-02-06T16:34:20.428Z,44.30
2023-02-06T16:36:48.593Z,42.55
2023-02-06T16:39:16.154Z,38.63
2023-02-06T16:41:43.740Z,42.67
2023-02-06T16:44:12.664Z,36.47
2023-02-06T16:46:40.002Z,38.58
2023-02-06T16:49:12.509Z,43.22
2023-02-06T16:51:40.946Z,38.20
2023-02-06T16:54:09.713Z,39.90
2023-02-06T16:56:39.015Z,43.25
2023-02-06T16:59:07.073Z,40.38
2023-02-06T17:01:36.056Z,43.92
2023-02-06T17:04:04.092Z,47.55
2023-02-06T17:06:34.286Z,44.30
2023-02-06T17:11:45.749Z,49.70
2023-02-06T17:14:13.034Z,53.65
2023-02-06T17:16:40.391Z,57.67
2023-02-06T17:19:07.755Z,56.55
2023-02-06T17:21:36.469Z,62.45
2023-02-06T17:24:03.860Z,71.78
2023-02-06T17:26:31.270Z,55.20
2023-02-06T17:28:58.621Z,61.83
2023-02-06T17:31:26.297Z,58.60
2023-02-06T17:33:53.714Z,61.90
2023-02-06T17:36:29.087Z,55.17
2023-02-06T17:39:00.188Z,52.70
2023-02-06T17:41:27.739Z,59.60
2023-02-06T17:43:55.376Z,60.58
2023-02-06T17:46:23.454Z,53.75
2023-02-06T17:48:51.099Z,48.97
2023-02-06T17:51:18.427Z,49.65
2023-02-06T17:53:45.742Z,49.97
2023-02-06T17:56:14.814Z,58.38
2023-02-06T17:58:42.896Z,64.38
2023-02-06T18:01:11.416Z,59.20
2023-02-06T18:03:39.108Z,61.13
2023-02-06T18:06:06.918Z,59.80
2023-02-06T18:08:34.526Z,74.65
2023-02-06T18:11:02.977Z,56.38
2023-02-06T18:13:31.660Z,74.82
2023-02-06T18:15:59.141Z,69.22
2023-02-06T18:18:27.008Z,73.32
2023-02-06T18:20:54.347Z,73.45
2023-02-06T18:23:21.684Z,83.53
2023-02-06T18:25:49.391Z,79.20
2023-02-06T18:28:17.891Z,77.47
2023-02-06T18:30:46.853Z,93.32
2023-02-06T18:33:14.202Z,71.60
2023-02-06T18:35:44.153Z,461.67
2023-02-06T18:38:12.051Z,354.83
2023-02-06T18:40:39.896Z,111.50
2023-02-06T18:43:06.730Z,76.55
2023-02-06T18:45:35.462Z,81.25
2023-02-06T18:48:05.118Z,63.72
2023-02-06T18:50:32.546Z,60.47
2023-02-06T18:53:00.160Z,48.53
2023-02-06T18:55:27.619Z,48.92
2023-02-06T18:57:55.453Z,42.05
2023-02-06T19:00:23.625Z,49.25
2023-02-06T19:02:51.436Z,41.47
2023-02-06T19:05:20.471Z,38.88
2023-02-06T19:07:49.477Z,56.92
2023-02-06T19:10:17.440Z,39.63
2023-02-06T19:12:44.795Z,47.28
2023-02-06T19:15:12.988Z,45.83
2023-02-06T19:17:40.361Z,42.90
2023-02-06T19:20:08.496Z,41.47
2023-02-06T19:22:37.597Z,48.95
2023-02-06T19:25:06.885Z,42.47
2023-02-06T19:27:35.544Z,42.80
2023-02-06T19:30:07.284Z,42.95
2023-02-06T19:32:34.777Z,56.50
2023-02-06T19:35:02.436Z,33.90
2023-02-06T19:37:29.912Z,37.55
2023-02-06T19:39:58.593Z,44.72
2023-02-06T19:42:26.014Z,41.40
2023-02-06T19:44:54.885Z,38.03
2023-02-06T19:47:22.678Z,36.30
2023-02-06T19:49:51.120Z,33.85
2023-02-06T19:52:18.540Z,41.63
2023-02-06T19:54:47.581Z,35.88
2023-02-06T19:57:19.111Z,49.25
2023-02-06T19:59:48.779Z,35.10
2023-02-06T20:02:16.876Z,35.08
2023-02-06T20:04:45.095Z,35.17
2023-02-06T20:07:12.463Z,26.50
2023-02-06T20:09:41.720Z,38.15
2023-02-06T20:12:09.937Z,38.28
2023-02-06T20:14:38.841Z,37.35
2023-02-06T20:17:06.400Z,40.58
2023-02-06T20:19:33.754Z,34.88
2023-02-06T20:22:01.307Z,36.50
2023-02-06T20:24:30.205Z,43.38
2023-02-06T20:26:59.007Z,35.55
2023-02-06T20:29:27.683Z,41.30
2023-02-06T20:31:57.457Z,35.75
2023-02-06T20:34:25.605Z,42.72
2023-02-06T20:36:53.236Z,43.47
2023-02-06T20:39:20.842Z,38.42
2023-02-06T20:41:49.423Z,57.05
2023-02-06T20:44:17.530Z,52.58
2023-02-06T20:46:45.126Z,37.30
2023-02-06T20:49:16.108Z,46.60
2023-02-06T20:51:43.830Z,39.75
2023-02-06T20:54:11.853Z,36.72
2023-02-06T20:56:39.499Z,37.83
2023-02-06T20:59:07.259Z,40.92
2023-02-06T21:01:35.058Z,44.25
2023-02-06T21:04:03.564Z,46.88
2023-02-06T21:06:34.821Z,43.28
2023-02-06T21:09:03.051Z,44.63
2023-02-06T21:11:31.940Z,42.53
2023-02-06T21:13:59.724Z,40.67
2023-02-06T21:16:27.495Z,42.05
2023-02-06T21:18:55.414Z,49.75
2023-02-06T21:21:22.842Z,40.08
2023-02-06T21:23:51.515Z,44.03
2023-02-06T21:26:19.189Z,38.70
2023-02-06T21:28:47.336Z,37.70
2023-02-06T21:31:16.807Z,39.75
2023-02-06T21:33:45.791Z,42.40
2023-02-06T21:36:13.501Z,35.60
2023-02-06T21:38:41.163Z,36.80
2023-02-06T21:41:11.574Z,36.67
2023-02-06T21:43:39.372Z,41.40
2023-02-06T21:46:07.113Z,30.90
2023-02-06T21:48:35.502Z,43.55
2023-02-06T21:51:08.211Z,37.33
2023-02-06T21:53:35.828Z,35.13
2023-02-06T21:56:05.546Z,32.88
2023-02-06T21:58:34.912Z,37.60
2023-02-06T22:01:08.703Z,41.65
2023-02-06T22:03:36.539Z,38.75
2023-02-06T22:06:08.473Z,40.85
2023-02-06T22:08:36.086Z,34.15
2023-02-06T22:11:03.506Z,34.78
2023-02-06T22:13:30.821Z,43.70
2023-02-06T22:15:59.550Z,37.15
2023-02-06T22:18:27.136Z,40.03
2023-02-06T22:21:03.357Z,37.20
2023-02-06T22:23:30.910Z,42.83
2023-02-06T22:25:58.252Z,32.92
2023-02-06T22:28:25.615Z,36.42
2023-02-06T22:30:52.961Z,38.22
2023-02-06T22:33:21.619Z,31.75
2023-02-06T22:35:48.911Z,38.17
2023-02-06T22:38:16.754Z,35.92
2023-02-06T22:40:44.293Z,33.28
2023-02-06T22:43:11.602Z,32.72
2023-02-06T22:45:39.111Z,37.00
2023-02-06T22:48:07.239Z,29.48
2023-02-06T22:50:37.388Z,31.13
2023-02-06T22:53:22.453Z,30.80
2023-02-06T22:56:07.378Z,25.88
2023-02-06T23:01:03.161Z,36.20
2023-02-06T23:03:30.787Z,38.00
2023-02-06T23:06:02.940Z,34.33
2023-02-06T23:08:30.437Z,36.85
2023-02-06T23:10:58.529Z,34.50
2023-02-06T23:13:27.010Z,51.85
2023-02-06T23:15:56.501Z,36.03
2023-02-06T23:18:24.530Z,34.42
2023-02-06T23:20:54.248Z,33.33
2023-02-06T23:23:22.986Z,35.72
2023-02-06T23:25:50.540Z,33.40
2023-02-06T23:28:17.943Z,35.08
2023-02-06T23:30:45.709Z,48.15
2023-02-06T23:33:13.283Z,37.75
2023-02-06T23:35:40.889Z,40.45
2023-02-06T23:38:08.347Z,32.80
2023-02-06T23:40:38.072Z,37.60
2023-02-06T23:43:05.958Z,32.60
2023-02-06T23:45:33.913Z,38.65
2023-02-06T23:48:04.510Z,36.10
2023-02-06T23:50:31.979Z,34.67
2023-02-06T23:52:59.366Z,36.40
2023-02-06T23:55:28.289Z,38.80
2023-02-06T23:57:57.495Z,42.08
